sensor_id;sensor_type;location;lat;lon;timestamp;pressure;altitude;pressure_sealevel;temperature
50206;BMP280;36098;48.390;10.856;2023-04-29T00:01:29;95744.56;;;22.40
50206;BMP280;36098;48.390;10.856;2023-04-29T00:03:54;95744.28;;;22.41
50206;BMP280;36098;48.390;10.856;2023-04-29T00:06:19;95741.63;;;22.41
50206;BMP280;36098;48.390;10.856;2023-04-29T00:08:45;95740.88;;;22.41
50206;BMP280;36098;48.390;10.856;2023-04-29T00:11:10;95738.22;;;22.36
50206;BMP280;36098;48.390;10.856;2023-04-29T00:13:36;95737.94;;;22.42
50206;BMP280;36098;48.390;10.856;2023-04-29T00:16:01;95730.34;;;22.41
50206;BMP280;36098;48.390;10.856;2023-04-29T00:18:26;95733.50;;;22.38
50206;BMP280;36098;48.390;10.856;2023-04-29T00:20:52;95733.50;;;22.33
50206;BMP280;36098;48.390;10.856;2023-04-29T00:23:17;95738.75;;;22.33
50206;BMP280;36098;48.390;10.856;2023-04-29T00:25:42;95732.97;;;22.41
50206;BMP280;36098;48.390;10.856;2023-04-29T00:28:07;95734.53;;;22.37
50206;BMP280;36098;48.390;10.856;2023-04-29T00:30:32;95730.31;;;22.36
50206;BMP280;36098;48.390;10.856;2023-04-29T00:32:58;95730.63;;;22.34
50206;BMP280;36098;48.390;10.856;2023-04-29T00:35:23;95726.16;;;22.30
50206;BMP280;36098;48.390;10.856;2023-04-29T00:37:48;95731.16;;;22.31
50206;BMP280;36098;48.390;10.856;2023-04-29T00:40:14;95726.66;;;22.32
50206;BMP280;36098;48.390;10.856;2023-04-29T00:42:40;95726.41;;;22.28
50206;BMP280;36098;48.390;10.856;2023-04-29T00:45:06;95726.94;;;22.35
50206;BMP280;36098;48.390;10.856;2023-04-29T00:47:31;95730.09;;;22.32
50206;BMP280;36098;48.390;10.856;2023-04-29T00:49:56;95733.03;;;22.26
50206;BMP280;36098;48.390;10.856;2023-04-29T00:52:21;95737.75;;;22.29
50206;BMP280;36098;48.390;10.856;2023-04-29T00:54:47;95736.16;;;22.28
50206;BMP280;36098;48.390;10.856;2023-04-29T00:57:13;95726.19;;;22.25
50206;BMP280;36098;48.390;10.856;2023-04-29T00:59:38;95734.31;;;22.28
50206;BMP280;36098;48.390;10.856;2023-04-29T01:02:03;95731.47;;;22.25
50206;BMP280;36098;48.390;10.856;2023-04-29T01:04:31;95732.53;;;22.24
50206;BMP280;36098;48.390;10.856;2023-04-29T01:14:39;95735.91;;;22.29
50206;BMP280;36098;48.390;10.856;2023-04-29T01:17:10;95733.28;;;22.29
50206;BMP280;36098;48.390;10.856;2023-04-29T01:19:53;95739.31;;;22.30
50206;BMP280;36098;48.390;10.856;2023-04-29T01:22:19;95736.16;;;22.28
50206;BMP280;36098;48.390;10.856;2023-04-29T01:24:46;95741.16;;;22.29
50206;BMP280;36098;48.390;10.856;2023-04-29T01:27:28;95744.03;;;22.33
50206;BMP280;36098;48.390;10.856;2023-04-29T01:32:45;95741.16;;;22.29
50206;BMP280;36098;48.390;10.856;2023-04-29T01:35:22;95736.94;;;22.28
50206;BMP280;36098;48.390;10.856;2023-04-29T01:40:37;95740.59;;;22.37
50206;BMP280;36098;48.390;10.856;2023-04-29T01:43:07;95736.13;;;22.38
50206;BMP280;36098;48.390;10.856;2023-04-29T01:45:35;95738.00;;;22.27
50206;BMP280;36098;48.390;10.856;2023-04-29T01:48:02;95730.63;;;22.34
50206;BMP280;36098;48.390;10.856;2023-04-29T01:50:28;95738.75;;;22.33
50206;BMP280;36098;48.390;10.856;2023-04-29T01:52:54;95733.00;;;22.31
50206;BMP280;36098;48.390;10.856;2023-04-29T01:55:19;95744.53;;;22.35
50206;BMP280;36098;48.390;10.856;2023-04-29T01:57:45;95735.88;;;22.34
50206;BMP280;36098;48.390;10.856;2023-04-29T02:00:10;95739.56;;;22.33
50206;BMP280;36098;48.390;10.856;2023-04-29T02:02:36;95740.34;;;22.34
50206;BMP280;36098;48.390;10.856;2023-04-29T02:05:01;95735.59;;;22.36
50206;BMP280;36098;48.390;10.856;2023-04-29T02:07:26;95735.88;;;22.39
50206;BMP280;36098;48.390;10.856;2023-04-29T02:09:52;95731.94;;;22.32
50206;BMP280;36098;48.390;10.856;2023-04-29T02:12:17;95736.13;;;22.33
50206;BMP280;36098;48.390;10.856;2023-04-29T02:14:42;95733.00;;;22.31
50206;BMP280;36098;48.390;10.856;2023-04-29T02:17:07;95733.28;;;22.24
50206;BMP280;36098;48.390;10.856;2023-04-29T02:19:32;95730.66;;;22.24
50206;BMP280;36098;48.390;10.856;2023-04-29T02:21:58;95731.66;;;22.38
50206;BMP280;36098;48.390;10.856;2023-04-29T02:24:23;95737.19;;;22.42
50206;BMP280;36098;48.390;10.856;2023-04-29T02:26:48;95731.41;;;22.40
50206;BMP280;36098;48.390;10.856;2023-04-29T02:29:13;95736.66;;;22.35
50206;BMP280;36098;48.390;10.856;2023-04-29T02:31:38;95738.53;;;22.29
50206;BMP280;36098;48.390;10.856;2023-04-29T02:34:03;95742.47;;;22.32
50206;BMP280;36098;48.390;10.856;2023-04-29T02:36:29;95740.84;;;22.36
50206;BMP280;36098;48.390;10.856;2023-04-29T02:38:54;95737.44;;;22.35
50206;BMP280;36098;48.390;10.856;2023-04-29T02:41:20;95735.91;;;22.24
50206;BMP280;36098;48.390;10.856;2023-04-29T02:43:45;95742.53;;;22.22
50206;BMP280;36098;48.390;10.856;2023-04-29T02:46:10;95740.63;;;22.27
50206;BMP280;36098;48.390;10.856;2023-04-29T02:48:36;95745.88;;;22.32
50206;BMP280;36098;48.390;10.856;2023-04-29T02:51:01;95744.84;;;22.28
50206;BMP280;36098;48.390;10.856;2023-04-29T02:53:26;95738.28;;;22.26
50206;BMP280;36098;48.390;10.856;2023-04-29T02:55:51;95737.75;;;22.29
50206;BMP280;36098;48.390;10.856;2023-04-29T02:58:16;95740.13;;;22.30
50206;BMP280;36098;48.390;10.856;2023-04-29T03:00:42;95746.94;;;22.26
50206;BMP280;36098;48.390;10.856;2023-04-29T03:03:07;95740.63;;;22.27
50206;BMP280;36098;48.390;10.856;2023-04-29T03:05:32;95746.19;;;22.26
50206;BMP280;36098;48.390;10.856;2023-04-29T03:07:58;95743.03;;;22.24
50206;BMP280;36098;48.390;10.856;2023-04-29T03:10:23;95746.66;;;22.33
50206;BMP280;36098;48.390;10.856;2023-04-29T03:12:49;95754.06;;;22.26
50206;BMP280;36098;48.390;10.856;2023-04-29T03:15:14;95747.53;;;22.18
50206;BMP280;36098;48.390;10.856;2023-04-29T03:17:39;95737.53;;;22.20
50206;BMP280;36098;48.390;10.856;2023-04-29T03:20:05;95744.88;;;22.23
50206;BMP280;36098;48.390;10.856;2023-04-29T03:22:30;95742.53;;;22.22
50206;BMP280;36098;48.390;10.856;2023-04-29T03:24:55;95742.53;;;22.17
50206;BMP280;36098;48.390;10.856;2023-04-29T03:27:20;95745.16;;;22.17
50206;BMP280;36098;48.390;10.856;2023-04-29T03:29:46;95739.84;;;22.27
50206;BMP280;36098;48.390;10.856;2023-04-29T03:32:11;95736.72;;;22.25
50206;BMP280;36098;48.390;10.856;2023-04-29T03:34:36;95741.47;;;22.18
50206;BMP280;36098;48.390;10.856;2023-04-29T03:37:01;95733.06;;;22.16
50206;BMP280;36098;48.390;10.856;2023-04-29T03:39:27;95740.13;;;22.25
50206;BMP280;36098;48.390;10.856;2023-04-29T03:41:56;95731.50;;;22.15
50206;BMP280;36098;48.390;10.856;2023-04-29T03:44:21;95740.97;;;22.16
50206;BMP280;36098;48.390;10.856;2023-04-29T03:46:46;95743.03;;;22.19
50206;BMP280;36098;48.390;10.856;2023-04-29T03:49:11;95736.72;;;22.25
50206;BMP280;36098;48.390;10.856;2023-04-29T03:51:37;95740.19;;;22.15
50206;BMP280;36098;48.390;10.856;2023-04-29T03:54:02;95752.78;;;22.18
50206;BMP280;36098;48.390;10.856;2023-04-29T03:56:27;95751.16;;;22.27
50206;BMP280;36098;48.390;10.856;2023-04-29T03:58:53;95747.53;;;22.18
50206;BMP280;36098;48.390;10.856;2023-04-29T04:01:18;95751.47;;;22.16
50206;BMP280;36098;48.390;10.856;2023-04-29T04:03:43;95742.31;;;22.13
50206;BMP280;36098;48.390;10.856;2023-04-29T04:06:09;95748.09;;;22.10
50206;BMP280;36098;48.390;10.856;2023-04-29T04:08:34;95748.59;;;22.17
50206;BMP280;36098;48.390;10.856;2023-04-29T04:10:59;95760.94;;;22.17
50206;BMP280;36098;48.390;10.856;2023-04-29T04:13:30;95759.13;;;22.12
50206;BMP280;36098;48.390;10.856;2023-04-29T04:15:55;95755.72;;;22.12
50206;BMP280;36098;48.390;10.856;2023-04-29T04:18:20;95758.84;;;22.14
50206;BMP280;36098;48.390;10.856;2023-04-29T04:20:45;95759.09;;;22.17
50206;BMP280;36098;48.390;10.856;2023-04-29T04:23:11;95767.78;;;22.18
50206;BMP280;36098;48.390;10.856;2023-04-29T04:25:36;95763.09;;;22.10
50206;BMP280;36098;48.390;10.856;2023-04-29T04:28:02;95776.25;;;22.05
50206;BMP280;36098;48.390;10.856;2023-04-29T04:30:27;95772.53;;;22.11
50206;BMP280;36098;48.390;10.856;2023-04-29T04:32:52;95780.72;;;22.09
50206;BMP280;36098;48.390;10.856;2023-04-29T04:35:17;95772.28;;;22.12
50206;BMP280;36098;48.390;10.856;2023-04-29T04:37:42;95777.25;;;22.14
50206;BMP280;36098;48.390;10.856;2023-04-29T04:40:08;95786.75;;;22.10
50206;BMP280;36098;48.390;10.856;2023-04-29T04:42:35;95783.09;;;22.06
50206;BMP280;36098;48.390;10.856;2023-04-29T04:45:00;95781.53;;;22.05
50206;BMP280;36098;48.390;10.856;2023-04-29T04:47:25;95776.25;;;22.05
50206;BMP280;36098;48.390;10.856;2023-04-29T04:49:51;95775.94;;;22.16
50206;BMP280;36098;48.390;10.856;2023-04-29T04:52:18;95773.06;;;22.13
50206;BMP280;36098;48.390;10.856;2023-04-29T04:54:44;95785.19;;;22.09
50206;BMP280;36098;48.390;10.856;2023-04-29T04:57:10;95785.72;;;22.06
50206;BMP280;36098;48.390;10.856;2023-04-29T04:59:35;95784.94;;;22.00
50206;BMP280;36098;48.390;10.856;2023-04-29T05:02:00;95792.25;;;22.08
50206;BMP280;36098;48.390;10.856;2023-04-29T05:04:25;95781.53;;;22.05
50206;BMP280;36098;48.390;10.856;2023-04-29T05:06:51;95796.25;;;22.06
50206;BMP280;36098;48.390;10.856;2023-04-29T05:09:16;95793.06;;;22.09
50206;BMP280;36098;48.390;10.856;2023-04-29T05:11:41;95796.78;;;22.03
50206;BMP280;36098;48.390;10.856;2023-04-29T05:14:07;95806.78;;;22.01
50206;BMP280;36098;48.390;10.856;2023-04-29T05:16:32;95798.13;;;21.95
50206;BMP280;36098;48.390;10.856;2023-04-29T05:18:57;95804.16;;;21.96
50206;BMP280;36098;48.390;10.856;2023-04-29T05:21:22;95803.31;;;22.05
50206;BMP280;36098;48.390;10.856;2023-04-29T05:23:47;95809.41;;;22.01
50206;BMP280;36098;48.390;10.856;2023-04-29T05:26:13;95808.88;;;21.99
50206;BMP280;36098;48.390;10.856;2023-04-29T05:28:38;95813.59;;;21.97
50206;BMP280;36098;48.390;10.856;2023-04-29T05:31:03;95815.19;;;22.03
50206;BMP280;36098;48.390;10.856;2023-04-29T05:33:28;95815.19;;;21.98
50206;BMP280;36098;48.390;10.856;2023-04-29T05:35:53;95812.03;;;21.96
50206;BMP280;36098;48.390;10.856;2023-04-29T05:38:19;95821.22;;;22.03
50206;BMP280;36098;48.390;10.856;2023-04-29T05:40:44;95821.25;;;21.98
50206;BMP280;36098;48.390;10.856;2023-04-29T05:43:09;95819.94;;;22.01
50206;BMP280;36098;48.390;10.856;2023-04-29T05:45:35;95816.78;;;21.94
50206;BMP280;36098;48.390;10.856;2023-04-29T05:48:00;95824.66;;;22.04
50206;BMP280;36098;48.390;10.856;2023-04-29T05:50:25;95825.69;;;21.98
50206;BMP280;36098;48.390;10.856;2023-04-29T05:52:50;95827.28;;;22.04
50206;BMP280;36098;48.390;10.856;2023-04-29T05:55:16;95829.91;;;22.04
50206;BMP280;36098;48.390;10.856;2023-04-29T05:57:41;95820.44;;;21.98
50206;BMP280;36098;48.390;10.856;2023-04-29T06:00:06;95826.53;;;21.93
50206;BMP280;36098;48.390;10.856;2023-04-29T06:02:31;95830.19;;;21.97
50206;BMP280;36098;48.390;10.856;2023-04-29T06:04:57;95836.78;;;21.85
50206;BMP280;36098;48.390;10.856;2023-04-29T06:07:22;95842.59;;;21.82
50206;BMP280;36098;48.390;10.856;2023-04-29T06:09:48;95838.88;;;21.88
50206;BMP280;36098;48.390;10.856;2023-04-29T06:12:13;95837.75;;;22.14
50206;BMP280;36098;48.390;10.856;2023-04-29T06:14:39;95843.53;;;22.11
50206;BMP280;36098;48.390;10.856;2023-04-29T06:17:04;95852.22;;;22.11
50206;BMP280;36098;48.390;10.856;2023-04-29T06:19:30;95849.00;;;22.34
50206;BMP280;36098;48.390;10.856;2023-04-29T06:21:56;95846.16;;;22.21
50206;BMP280;36098;48.390;10.856;2023-04-29T06:24:22;95854.78;;;22.26
50206;BMP280;36098;48.390;10.856;2023-04-29T06:26:47;95853.22;;;22.25
50206;BMP280;36098;48.390;10.856;2023-04-29T06:29:12;95857.84;;;22.58
50206;BMP280;36098;48.390;10.856;2023-04-29T06:31:38;95857.06;;;22.58
50206;BMP280;36098;48.390;10.856;2023-04-29T06:34:03;95858.19;;;22.32
50206;BMP280;36098;48.390;10.856;2023-04-29T06:36:28;95849.91;;;22.00
50206;BMP280;36098;48.390;10.856;2023-04-29T06:38:53;95849.34;;;22.08
50206;BMP280;36098;48.390;10.856;2023-04-29T06:41:19;95857.00;;;21.94
50206;BMP280;36098;48.390;10.856;2023-04-29T06:43:44;95858.28;;;22.07
50206;BMP280;36098;48.390;10.856;2023-04-29T06:46:10;95859.88;;;22.03
50206;BMP280;36098;48.390;10.856;2023-04-29T06:48:35;95857.25;;;21.98
50206;BMP280;36098;48.390;10.856;2023-04-29T06:51:01;95862.50;;;22.08
50206;BMP280;36098;48.390;10.856;2023-04-29T06:53:26;95864.84;;;22.04
50206;BMP280;36098;48.390;10.856;2023-04-29T06:55:51;95861.72;;;21.97
50206;BMP280;36098;48.390;10.856;2023-04-29T06:58:17;95866.19;;;21.97
50206;BMP280;36098;48.390;10.856;2023-04-29T07:00:43;95871.97;;;21.94
50206;BMP280;36098;48.390;10.856;2023-04-29T07:03:08;95869.88;;;21.96
50206;BMP280;36098;48.390;10.856;2023-04-29T07:05:35;95870.44;;;21.88
50206;BMP280;36098;48.390;10.856;2023-04-29T07:08:00;95867.28;;;21.86
50206;BMP280;36098;48.390;10.856;2023-04-29T07:10:26;95863.63;;;21.82
50206;BMP280;36098;48.390;10.856;2023-04-29T07:12:51;95869.88;;;21.91
50206;BMP280;36098;48.390;10.856;2023-04-29T07:15:17;95866.22;;;21.87
50206;BMP280;36098;48.390;10.856;2023-04-29T07:17:42;95873.81;;;21.88
50206;BMP280;36098;48.390;10.856;2023-04-29T07:20:07;95878.03;;;21.89
50206;BMP280;36098;48.390;10.856;2023-04-29T07:22:33;95876.19;;;21.95
50206;BMP280;36098;48.390;10.856;2023-04-29T07:24:58;95879.09;;;21.93
50206;BMP280;36098;48.390;10.856;2023-04-29T07:27:23;95874.09;;;22.02
50206;BMP280;36098;48.390;10.856;2023-04-29T07:29:49;95873.56;;;21.95
50206;BMP280;36098;48.390;10.856;2023-04-29T07:32:14;95874.63;;;21.89
50206;BMP280;36098;48.390;10.856;2023-04-29T07:34:39;95869.63;;;21.92
50206;BMP280;36098;48.390;10.856;2023-04-29T07:37:04;95878.28;;;21.93
50206;BMP280;36098;48.390;10.856;2023-04-29T07:39:30;95875.94;;;21.91
50206;BMP280;36098;48.390;10.856;2023-04-29T07:41:55;95886.19;;;21.93
50206;BMP280;36098;48.390;10.856;2023-04-29T07:44:21;95883.03;;;21.91
50206;BMP280;36098;48.390;10.856;2023-04-29T07:46:46;95883.03;;;21.91
50206;BMP280;36098;48.390;10.856;2023-04-29T07:49:12;95885.13;;;21.94
50206;BMP280;36098;48.390;10.856;2023-04-29T07:51:39;95885.66;;;21.96
50206;BMP280;36098;48.390;10.856;2023-04-29T07:54:05;95890.91;;;21.96
50206;BMP280;36098;48.390;10.856;2023-04-29T07:56:30;95890.91;;;21.91
50206;BMP280;36098;48.390;10.856;2023-04-29T07:58:55;95890.91;;;21.96
50206;BMP280;36098;48.390;10.856;2023-04-29T08:01:20;95881.91;;;22.22
50206;BMP280;36098;48.390;10.856;2023-04-29T08:03:45;95881.91;;;22.27
50206;BMP280;36098;48.390;10.856;2023-04-29T08:06:10;95880.72;;;22.63
50206;BMP280;36098;48.390;10.856;2023-04-29T08:08:36;95875.00;;;22.46
50206;BMP280;36098;48.390;10.856;2023-04-29T08:11:01;95877.69;;;22.41
50206;BMP280;36098;48.390;10.856;2023-04-29T08:13:26;95880.28;;;22.46
50206;BMP280;36098;48.390;10.856;2023-04-29T08:15:51;95889.50;;;22.38
50206;BMP280;36098;48.390;10.856;2023-04-29T08:18:17;95885.06;;;22.39
50206;BMP280;36098;48.390;10.856;2023-04-29T08:20:42;95885.03;;;22.44
50206;BMP280;36098;48.390;10.856;2023-04-29T08:23:07;95877.06;;;22.59
50206;BMP280;36098;48.390;10.856;2023-04-29T08:25:33;95890.25;;;22.49
50206;BMP280;36098;48.390;10.856;2023-04-29T08:27:58;95890.06;;;22.89
50206;BMP280;36098;48.390;10.856;2023-04-29T08:30:23;95898.84;;;22.74
50206;BMP280;36098;48.390;10.856;2023-04-29T08:32:48;95906.09;;;22.29
50206;BMP280;36098;48.390;10.856;2023-04-29T08:35:14;95906.59;;;22.46
50206;BMP280;36098;48.390;10.856;2023-04-29T08:37:39;95905.56;;;22.95
50206;BMP280;36098;48.390;10.856;2023-04-29T08:40:04;95906.16;;;22.82
50206;BMP280;36098;48.390;10.856;2023-04-29T08:42:36;95911.72;;;22.76
50206;BMP280;36098;48.390;10.856;2023-04-29T08:45:01;95911.56;;;22.47
50206;BMP280;36098;48.390;10.856;2023-04-29T08:47:30;95908.97;;;22.32
50206;BMP280;36098;48.390;10.856;2023-04-29T08:49:57;95912.41;;;22.18
50206;BMP280;36098;48.390;10.856;2023-04-29T08:52:25;95909.78;;;22.18
50206;BMP280;36098;48.390;10.856;2023-04-29T08:54:50;95912.13;;;22.24
50206;BMP280;36098;48.390;10.856;2023-04-29T08:57:15;95909.56;;;22.09
50206;BMP280;36098;48.390;10.856;2023-04-29T08:59:41;95910.84;;;22.12
50206;BMP280;36098;48.390;10.856;2023-04-29T09:02:07;95903.19;;;22.30
50206;BMP280;36098;48.390;10.856;2023-04-29T09:07:10;95900.25;;;22.52
50206;BMP280;36098;48.390;10.856;2023-04-29T09:09:36;95911.31;;;22.49
50206;BMP280;36098;48.390;10.856;2023-04-29T09:12:03;95918.47;;;22.23
50206;BMP280;36098;48.390;10.856;2023-04-29T09:14:28;95915.56;;;22.25
50206;BMP280;36098;48.390;10.856;2023-04-29T09:16:54;95923.19;;;22.26
50206;BMP280;36098;48.390;10.856;2023-04-29T09:19:29;95924.75;;;22.37
50206;BMP280;36098;48.390;10.856;2023-04-29T09:21:55;95914.00;;;22.24
50206;BMP280;36098;48.390;10.856;2023-04-29T09:24:23;95919.25;;;22.14
50206;BMP280;36098;48.390;10.856;2023-04-29T09:26:49;95919.53;;;22.07
50206;BMP280;36098;48.390;10.856;2023-04-29T09:29:14;95912.19;;;22.14
50206;BMP280;36098;48.390;10.856;2023-04-29T09:31:42;95922.09;;;22.52
50206;BMP280;36098;48.390;10.856;2023-04-29T09:34:07;95917.66;;;22.38
50206;BMP280;36098;48.390;10.856;2023-04-29T09:36:48;95915.00;;;22.38
50206;BMP280;36098;48.390;10.856;2023-04-29T09:39:15;95913.13;;;22.48
50206;BMP280;36098;48.390;10.856;2023-04-29T09:42:01;95929.16;;;22.57
50206;BMP280;36098;48.390;10.856;2023-04-29T09:44:30;95918.19;;;22.45
50206;BMP280;36098;48.390;10.856;2023-04-29T09:47:04;95926.06;;;22.45
50206;BMP280;36098;48.390;10.856;2023-04-29T09:49:30;95919.34;;;22.77
50206;BMP280;36098;48.390;10.856;2023-04-29T09:52:00;95916.50;;;22.69
50206;BMP280;36098;48.390;10.856;2023-04-29T09:54:27;95914.72;;;23.08
50206;BMP280;36098;48.390;10.856;2023-04-29T09:56:53;95918.56;;;23.25
50206;BMP280;36098;48.390;10.856;2023-04-29T09:59:19;95913.13;;;23.12
50206;BMP280;36098;48.390;10.856;2023-04-29T10:01:48;95912.97;;;23.36
50206;BMP280;36098;48.390;10.856;2023-04-29T10:04:14;95919.34;;;23.30
50206;BMP280;36098;48.390;10.856;2023-04-29T10:06:40;95914.00;;;23.40
50206;BMP280;36098;48.390;10.856;2023-04-29T10:09:06;95920.19;;;23.54
50206;BMP280;36098;48.390;10.856;2023-04-29T10:11:32;95908.97;;;23.77
50206;BMP280;36098;48.390;10.856;2023-04-29T10:13:58;95913.84;;;23.94
50206;BMP280;36098;48.390;10.856;2023-04-29T10:16:27;95916.44;;;23.99
50206;BMP280;36098;48.390;10.856;2023-04-29T10:18:53;95912.81;;;23.56
50206;BMP280;36098;48.390;10.856;2023-04-29T10:21:20;95916.44;;;23.65
50206;BMP280;36098;48.390;10.856;2023-04-29T10:23:46;95906.91;;;23.69
50206;BMP280;36098;48.390;10.856;2023-04-29T10:26:12;95902.34;;;23.80
50206;BMP280;36098;48.390;10.856;2023-04-29T10:28:39;95904.22;;;23.74
50206;BMP280;36098;48.390;10.856;2023-04-29T10:31:04;95914.31;;;23.67
50206;BMP280;36098;48.390;10.856;2023-04-29T10:33:30;95902.34;;;23.80
50206;BMP280;36098;48.390;10.856;2023-04-29T10:35:59;95922.25;;;23.96
50206;BMP280;36098;48.390;10.856;2023-04-29T10:39:08;95914.16;;;23.87
50206;BMP280;36098;48.390;10.856;2023-04-29T10:41:21;95907.75;;;23.98
50206;BMP280;36098;48.390;10.856;2023-04-29T10:43:52;95909.16;;;23.86
50206;BMP280;36098;48.390;10.856;2023-04-29T10:48:43;95907.91;;;23.73
50206;BMP280;36098;48.390;10.856;2023-04-29T10:51:08;95913.25;;;23.68
50206;BMP280;36098;48.390;10.856;2023-04-29T10:53:33;95898.41;;;23.77
50206;BMP280;36098;48.390;10.856;2023-04-29T10:56:03;95898.09;;;24.12
50206;BMP280;36098;48.390;10.856;2023-04-29T11:01:09;95900.47;;;24.37
50206;BMP280;36098;48.390;10.856;2023-04-29T11:03:54;95901.06;;;24.29
50206;BMP280;36098;48.390;10.856;2023-04-29T11:06:22;95899.97;;;24.35
50206;BMP280;36098;48.390;10.856;2023-04-29T11:11:32;95903.78;;;24.24
50206;BMP280;36098;48.390;10.856;2023-04-29T11:14:03;95903.66;;;24.34
50206;BMP280;36098;48.390;10.856;2023-04-29T11:16:28;95897.88;;;24.32
50206;BMP280;36098;48.390;10.856;2023-04-29T11:19:02;95895.88;;;24.24
50206;BMP280;36098;48.390;10.856;2023-04-29T11:21:28;95893.66;;;24.31
50206;BMP280;36098;48.390;10.856;2023-04-29T11:23:53;95887.06;;;24.34
50206;BMP280;36098;48.390;10.856;2023-04-29T11:26:18;95893.13;;;24.58
50206;BMP280;36098;48.390;10.856;2023-04-29T11:28:44;95894.13;;;24.62
50206;BMP280;36098;48.390;10.856;2023-04-29T11:31:09;95892.00;;;24.40
50206;BMP280;36098;48.390;10.856;2023-04-29T11:33:35;95899.41;;;24.62
50206;BMP280;36098;48.390;10.856;2023-04-29T11:36:00;95904.13;;;24.41
50206;BMP280;36098;48.390;10.856;2023-04-29T11:38:26;95905.91;;;24.22
50206;BMP280;36098;48.390;10.856;2023-04-29T11:40:51;95909.94;;;24.15
50206;BMP280;36098;48.390;10.856;2023-04-29T11:43:16;95907.31;;;23.86
50206;BMP280;36098;48.390;10.856;2023-04-29T11:45:43;95916.38;;;23.70
50206;BMP280;36098;48.390;10.856;2023-04-29T11:48:08;95918.63;;;23.53
50206;BMP280;36098;48.390;10.856;2023-04-29T11:50:34;95919.19;;;23.50
50206;BMP280;36098;48.390;10.856;2023-04-29T11:53:00;95921.63;;;23.42
50206;BMP280;36098;48.390;10.856;2023-04-29T11:55:26;95922.22;;;23.67
50206;BMP280;36098;48.390;10.856;2023-04-29T11:57:51;95913.19;;;23.78
50206;BMP280;36098;48.390;10.856;2023-04-29T12:00:17;95912.53;;;23.91
50206;BMP280;36098;48.390;10.856;2023-04-29T12:02:43;95912.44;;;23.73
50206;BMP280;36098;48.390;10.856;2023-04-29T12:05:08;95911.41;;;24.02
50206;BMP280;36098;48.390;10.856;2023-04-29T12:07:34;95908.47;;;24.04
50206;BMP280;36098;48.390;10.856;2023-04-29T12:10:00;95913.53;;;24.00
50206;BMP280;36098;48.390;10.856;2023-04-29T12:12:25;95911.16;;;23.99
50206;BMP280;36098;48.390;10.856;2023-04-29T12:14:52;95907.44;;;24.00
50206;BMP280;36098;48.390;10.856;2023-04-29T12:17:17;95913.56;;;23.95
50206;BMP280;36098;48.390;10.856;2023-04-29T12:19:43;95913.34;;;23.92
50206;BMP280;36098;48.390;10.856;2023-04-29T12:22:08;95913.69;;;23.75
50206;BMP280;36098;48.390;10.856;2023-04-29T12:24:37;95923.50;;;24.03
50206;BMP280;36098;48.390;10.856;2023-04-29T12:27:03;95916.47;;;23.94
50206;BMP280;36098;48.390;10.856;2023-04-29T12:29:30;95920.44;;;23.91
50206;BMP280;36098;48.390;10.856;2023-04-29T12:31:55;95916.88;;;23.77
50206;BMP280;36098;48.390;10.856;2023-04-29T12:34:29;95923.78;;;23.68
50206;BMP280;36098;48.390;10.856;2023-04-29T12:36:55;95917.44;;;23.69
50206;BMP280;36098;48.390;10.856;2023-04-29T12:39:22;95923.75;;;23.73
50206;BMP280;36098;48.390;10.856;2023-04-29T12:41:47;95910.53;;;23.78
50206;BMP280;36098;48.390;10.856;2023-04-29T12:44:12;95918.16;;;23.80
50206;BMP280;36098;48.390;10.856;2023-04-29T12:46:38;95919.50;;;23.77
50206;BMP280;36098;48.390;10.856;2023-04-29T12:49:04;95920.44;;;23.96
50206;BMP280;36098;48.390;10.856;2023-04-29T12:51:30;95924.06;;;24.00
50206;BMP280;36098;48.390;10.856;2023-04-29T12:53:56;95919.06;;;23.99
50206;BMP280;36098;48.390;10.856;2023-04-29T12:56:22;95924.88;;;24.24
50206;BMP280;36098;48.390;10.856;2023-04-29T12:58:47;95906.59;;;24.33
50206;BMP280;36098;48.390;10.856;2023-04-29T13:01:12;95910.88;;;24.52
50206;BMP280;36098;48.390;10.856;2023-04-29T13:03:37;95908.84;;;24.44
50206;BMP280;36098;48.390;10.856;2023-04-29T13:06:04;95919.28;;;24.31
50206;BMP280;36098;48.390;10.856;2023-04-29T13:08:29;95925.94;;;24.23
50206;BMP280;36098;48.390;10.856;2023-04-29T13:10:54;95918.44;;;24.35
50206;BMP280;36098;48.390;10.856;2023-04-29T13:13:20;95916.53;;;24.17
50206;BMP280;36098;48.390;10.856;2023-04-29T13:15:45;95920.75;;;24.13
50206;BMP280;36098;48.390;10.856;2023-04-29T13:18:11;95916.16;;;24.00
50206;BMP280;36098;48.390;10.856;2023-04-29T13:20:36;95922.50;;;24.23
50206;BMP280;36098;48.390;10.856;2023-04-29T13:23:01;95919.47;;;24.34
50206;BMP280;36098;48.390;10.856;2023-04-29T13:25:26;95917.91;;;24.10
50206;BMP280;36098;48.390;10.856;2023-04-29T13:27:52;95916.63;;;24.07
50206;BMP280;36098;48.390;10.856;2023-04-29T13:30:17;95920.44;;;23.91
50206;BMP280;36098;48.390;10.856;2023-04-29T13:32:42;95916.03;;;23.87
50206;BMP280;36098;48.390;10.856;2023-04-29T13:35:08;95911.53;;;23.87
50206;BMP280;36098;48.390;10.856;2023-04-29T13:37:33;95911.97;;;23.94
50206;BMP280;36098;48.390;10.856;2023-04-29T13:39:58;95911.41;;;24.02
50206;BMP280;36098;48.390;10.856;2023-04-29T13:42:24;95916.34;;;24.09
50206;BMP280;36098;48.390;10.856;2023-04-29T13:44:49;95917.06;;;24.14
50206;BMP280;36098;48.390;10.856;2023-04-29T13:47:15;95915.22;;;24.15
50206;BMP280;36098;48.390;10.856;2023-04-29T13:49:41;95920.16;;;24.21
50206;BMP280;36098;48.390;10.856;2023-04-29T13:52:08;95928.91;;;24.17
50206;BMP280;36098;48.390;10.856;2023-04-29T13:54:33;95925.44;;;24.21
50206;BMP280;36098;48.390;10.856;2023-04-29T13:56:59;95932.34;;;24.17
50206;BMP280;36098;48.390;10.856;2023-04-29T13:59:27;95928.50;;;24.05
50206;BMP280;36098;48.390;10.856;2023-04-29T14:01:52;95925.13;;;23.99
50206;BMP280;36098;48.390;10.856;2023-04-29T14:04:18;95928.09;;;23.93
50206;BMP280;36098;48.390;10.856;2023-04-29T14:06:43;95921.59;;;23.80
50206;BMP280;36098;48.390;10.856;2023-04-29T14:09:08;95926.63;;;23.77
50206;BMP280;36098;48.390;10.856;2023-04-29T14:11:33;95924.78;;;23.77
50206;BMP280;36098;48.390;10.856;2023-04-29T14:14:00;95929.44;;;23.90